ADDS METAR Data INFO
IDs: Format: Raw Decoded Include TAF

Data at: 2330 UTC 19 Oct 2017

KARM 192315Z AUTO 09006KT 10SM CLR 25/17 A3007 RMK AO2 T02520171
KARM 192255Z AUTO 09007KT 10SM CLR 26/17 A3006 RMK AO2 T02570173
KARM 192235Z AUTO 09007KT 10SM CLR 26/17 A3006 RMK AO2 T02600174
KARM 192215Z AUTO 09007KT 10SM CLR 26/17 A3006 RMK AO2 T02600171
KARM 192155Z AUTO 10008KT 10SM CLR 26/17 A3006 RMK AO2 T02620174
KARM 192135Z AUTO 11008KT 10SM CLR 27/18 A3006 RMK AO2 T02650175
KARM 192115Z AUTO 09007KT 10SM CLR 27/17 A3006 RMK AO2 T02670167
KARM 192055Z AUTO 11004KT 10SM CLR 26/17 A3007 RMK AO2 T02630166
KARM 192040Z AUTO 10007KT 10SM CLR 27/16 A3007 RMK AO2 T02690159
KARM 192015Z AUTO 10006KT 10SM SCT050 27/15 A3007 RMK AO2 T02710154
KARM 191955Z AUTO 10006KT 10SM SCT050 SCT110 28/14 A3007 RMK AO2 T02810143
KARM 191935Z AUTO 06006KT 10SM SCT050 SCT110 29/14 A3007 RMK AO2 T02850143
KARM 191915Z AUTO 09007KT 10SM CLR 29/14 A3008 RMK AO2 T02890143
KARM 191855Z AUTO 08005KT 10SM SCT048 29/14 A3009 RMK AO2 T02860139
KARM 191835Z AUTO 08006KT 10SM SCT048 29/14 A3009 RMK AO2 T02890142
KARM 191815Z AUTO 09005KT 10SM SCT046 30/14 A3010 RMK AO2 T02950141
KARM 191755Z AUTO 08006KT 7SM SCT042 29/15 A3011 RMK AO2 T02860150 10286 20145
KARM 191735Z AUTO 09009KT 10SM SCT040 28/16 A3012 RMK AO2 T02790156
KARM 191715Z AUTO 10009KT 10SM SCT038 28/16 A3013 RMK AO2 T02830162
KARM 191655Z AUTO 08007KT 10SM SCT033 27/17 A3013 RMK AO2 T02670167
KARM 191635Z AUTO 07006KT 10SM CLR 27/17 A3013 RMK AO2 T02660171
KARM 191615Z AUTO 08009KT 10SM CLR 27/17 A3013 RMK AO2 T02690173
KARM 191555Z AUTO 06005KT 10SM CLR 26/17 A3013 RMK AO2 T02630173
KARM 191535Z AUTO 06007KT 10SM CLR 25/17 A3013 RMK AO2 T02530172
KARM 191515Z AUTO 05007KT 10SM CLR 24/17 A3014 RMK AO2 T02420171
KARM 191455Z AUTO 05003KT 10SM CLR 23/17 A3014 RMK AO2 T02310171
KARM 191435Z AUTO 05004KT 10SM CLR 22/18 A3014 RMK AO2 T02180176
KARM 191415Z AUTO 03003KT 10SM CLR 20/18 A3013 RMK AO2 T02030176
KARM 191355Z AUTO 03003KT 10SM CLR 19/18 A3012 RMK AO2 T01880177
KARM 191335Z AUTO 00000KT 10SM CLR 18/17 A3011 RMK AO2 T01750171
KARM 191315Z AUTO 00000KT 5SM BR CLR 16/15 A3011 RMK AO2 T01580154
KARM 191255Z AUTO 00000KT 5SM BR CLR 15/15 A3011 RMK AO2 T01510147
KARM 191235Z AUTO 01004KT 4SM BR CLR 15/14 A3010 RMK AO2 T01470143
KARM 191215Z AUTO 00000KT 4SM BR CLR 15/14 A3010 RMK AO2 T01460142
KARM 191155Z AUTO 00000KT 4SM BR CLR 16/15 A3010 RMK AO2 T01550150 10165 20143
KARM 191135Z AUTO 00000KT 4SM BR CLR 15/14 A3010 RMK AO2 T01470142
KARM 191115Z AUTO 00000KT 4SM BR CLR 15/15 A3010 RMK AO2 T01530149
KARM 191055Z AUTO 00000KT 3SM BR CLR 16/15 A3010 RMK AO2 T01550150
KARM 191035Z AUTO 00000KT 1 3/4SM BR VV007 15/15 A3009 RMK AO2 VIS 3/4V4 T01520147
KARM 191015Z AUTO 00000KT 3SM BR CLR 15/15 A3009 RMK AO2 T01520147
KARM 190955Z AUTO 00000KT 4SM BR CLR 15/15 A3009 RMK AO2 T01510146
KARM 190935Z AUTO 00000KT 3SM BR CLR 15/14 A3009 RMK AO2 T01480141
KARM 190915Z AUTO 03003KT 1/2SM FG VV005 15/14 A3009 RMK AO2 T01500143
KARM 190855Z AUTO 00000KT 2 1/2SM BR CLR 16/15 A3009 RMK AO2 T01610151
KARM 190835Z AUTO 00000KT 10SM CLR 16/14 A3010 RMK AO2 T01550143
KARM 190815Z AUTO 00000KT 7SM CLR 16/15 A3010 RMK AO2 T01560147
KARM 190755Z AUTO 00000KT 10SM CLR 15/14 A3011 RMK AO2 T01520140
KARM 190735Z AUTO 00000KT 10SM SCT033 16/15 A3011 RMK AO2 T01590148
KARM 190715Z AUTO 00000KT 10SM SCT033 16/14 A3011 RMK AO2 T01610137
KARM 190655Z AUTO 00000KT 10SM CLR 16/14 A3011 RMK AO2 T01620143
KARM 190635Z AUTO 00000KT 10SM CLR 16/14 A3011 RMK AO2 T01630138
KARM 190615Z AUTO 00000KT 10SM CLR 16/15 A3011 RMK AO2 T01610150
KARM 190555Z AUTO 00000KT 10SM CLR 16/14 A3011 RMK AO2 T01600144 10236 20160 402860081
KARM 190535Z AUTO 00000KT 10SM CLR 17/15 A3012 RMK AO2 T01700150
KARM 190515Z AUTO 00000KT 10SM CLR 17/15 A3012 RMK AO2 T01720150
KARM 190455Z AUTO 00000KT 10SM CLR 18/15 A3013 RMK AO2 T01750150
KARM 190435Z AUTO 00000KT 10SM CLR 18/15 A3013 RMK AO2 T01790150
KARM 190415Z AUTO 10003KT 10SM CLR 18/15 A3013 RMK AO2 T01790150
KARM 190355Z AUTO 00000KT 10SM CLR 18/15 A3013 RMK AO2 T01810150
KARM 190335Z AUTO 09003KT 10SM CLR 19/15 A3013 RMK AO2 T01850151
KARM 190315Z AUTO 00000KT 10SM CLR 19/15 A3013 RMK AO2 T01900151
KARM 190255Z AUTO 10004KT 10SM CLR 19/15 A3012 RMK AO2 T01930152
KARM 190235Z AUTO 10005KT 10SM CLR 19/15 A3012 RMK AO2 T01900153
KARM 190215Z AUTO 11004KT 10SM CLR 19/15 A3012 RMK AO2 T01920152
KARM 190155Z AUTO 12004KT 10SM CLR 20/16 A3012 RMK AO2 T01960156
KARM 190135Z AUTO 11003KT 10SM CLR 20/16 A3011 RMK AO2 T02000157
KARM 190115Z AUTO 12004KT 10SM CLR 21/16 A3011 RMK AO2 T02070159
KARM 190055Z AUTO 13005KT 10SM CLR 21/16 A3011 RMK AO2 T02050160
KARM 190035Z AUTO 13003KT 10SM CLR 22/15 A3010 RMK AO2 T02150154
KARM 190015Z AUTO 00000KT 10SM CLR 23/15 A3010 RMK AO2 T02310148
KARM 182355Z AUTO 08003KT 10SM CLR 24/12 A3009 RMK AO2 T02380120 10286 20238
KARM 182335Z AUTO 00000KT 10SM CLR 25/12 A3008 RMK AO2 T02480120
KARM 182315Z AUTO 00000KT 10SM CLR 26/11 A3008 RMK AO2 T02610114
KARM 182255Z AUTO 00000KT 10SM CLR 27/11 A3008 RMK AO2 T02700105
KARM 182235Z AUTO 06004KT 10SM CLR 28/10 A3008 RMK AO2 T02770095
KARM 182215Z AUTO 06005KT 10SM CLR 28/09 A3008 RMK AO2 T02800094
KARM 182155Z AUTO 03004KT 10SM CLR 28/10 A3008 RMK AO2 T02810097
KARM 182135Z AUTO 00000KT 10SM CLR 29/10 A3009 RMK AO2 T02850096
KARM 182115Z AUTO 01004KT 10SM CLR 28/10 A3009 RMK AO2 T02810098
KARM 182055Z AUTO 00000KT 10SM CLR 28/10 A3010 RMK AO2 T02820096
KARM 182035Z AUTO 05004KT 10SM CLR 28/09 A3011 RMK AO2 T02820090
KARM 182015Z AUTO 00000KT 10SM CLR 28/09 A3011 RMK AO2 T02780088
KARM 181955Z AUTO 00000KT 10SM CLR 28/09 A3011 RMK AO2 T02770085
KARM 181935Z AUTO 00000KT 10SM CLR 27/08 A3012 RMK AO2 T02740081
KARM 181915Z AUTO 11003KT 10SM CLR 27/08 A3013 RMK AO2 T02730080
KARM 181855Z AUTO 15003KT 10SM CLR 27/09 A3014 RMK AO2 T02680092
KARM 181835Z AUTO 17005KT 10SM CLR 26/10 A3015 RMK AO2 T02640101
KARM 181815Z AUTO 00000KT 10SM CLR 26/10 A3016 RMK AO2 T02590097
KARM 181755Z AUTO 00000KT 10SM CLR 25/09 A3016 RMK AO2 T02540091 10255 20085
KARM 181735Z AUTO 16004KT 10SM CLR 26/10 A3018 RMK AO2 T02550104
KARM 181715Z AUTO 16003KT 10SM CLR 25/11 A3018 RMK AO2 T02460110
KARM 181655Z AUTO 00000KT 10SM CLR 25/11 A3019 RMK AO2 T02490109
KARM 181635Z AUTO 08003KT 10SM CLR 24/11 A3019 RMK AO2 T02380106
KARM 181615Z AUTO 00000KT 10SM CLR 24/10 A3019 RMK AO2 T02350101
KARM 181555Z AUTO 00000KT 10SM CLR 23/09 A3019 RMK AO2 T02280092
KARM 181535Z AUTO 06003KT 10SM CLR 22/09 A3020 RMK AO2 T02190087
KARM 181515Z AUTO 00000KT 10SM CLR 21/10 A3019 RMK AO2 T02050100
KARM 181455Z AUTO 04004KT 10SM CLR 19/10 A3020 RMK AO2 T01910104
KARM 181435Z AUTO 00000KT 10SM CLR 18/11 A3019 RMK AO2 T01750113
KARM 181415Z AUTO 00000KT 10SM CLR 16/12 A3019 RMK AO2 T01570117
KARM 181355Z AUTO 00000KT 10SM CLR 14/11 A3018 RMK AO2 T01350110
KARM 181335Z AUTO 00000KT 10SM CLR 12/10 A3017 RMK AO2 T01200102
KARM 181315Z AUTO 00000KT 10SM CLR 11/09 A3017 RMK AO2 T01050091
KARM 181255Z AUTO 00000KT 10SM CLR 09/08 A3016 RMK AO2 T00900077
KARM 181235Z AUTO 00000KT 10SM CLR 09/07 A3016 RMK AO2 T00880072
KARM 181215Z AUTO 00000KT 10SM CLR 09/08 A3016 RMK AO2 T00920077
KARM 181155Z AUTO 00000KT 10SM CLR 09/08 A3016 RMK AO2 70004 T00900076 10111 20081
KARM 181135Z AUTO 00000KT 10SM CLR 09/08 A3015 RMK AO2 T00900079